sensor_id;sensor_type;location;lat;lon;timestamp;P1;durP1;ratioP1;P2;durP2;ratioP2
9166;SDS011;4618;48.818;9.088;2023-02-28T00:00:29;2.90;;;2.30;;
9166;SDS011;4618;48.818;9.088;2023-02-28T00:02:55;3.67;;;2.40;;
9166;SDS011;4618;48.818;9.088;2023-02-28T00:05:21;2.80;;;2.37;;
9166;SDS011;4618;48.818;9.088;2023-02-28T00:07:48;2.90;;;2.30;;
9166;SDS011;4618;48.818;9.088;2023-02-28T00:10:16;2.30;;;2.03;;
9166;SDS011;4618;48.818;9.088;2023-02-28T00:12:48;3.20;;;2.37;;
9166;SDS011;4618;48.818;9.088;2023-02-28T00:15:17;3.00;;;2.47;;
9166;SDS011;4618;48.818;9.088;2023-02-28T00:17:43;2.93;;;2.20;;
9166;SDS011;4618;48.818;9.088;2023-02-28T00:20:10;2.33;;;1.80;;
9166;SDS011;4618;48.818;9.088;2023-02-28T00:22:41;2.97;;;2.30;;
9166;SDS011;4618;48.818;9.088;2023-02-28T00:25:09;3.80;;;2.27;;
9166;SDS011;4618;48.818;9.088;2023-02-28T00:27:36;4.10;;;2.67;;
9166;SDS011;4618;48.818;9.088;2023-02-28T00:30:03;2.67;;;2.47;;
9166;SDS011;4618;48.818;9.088;2023-02-28T00:32:30;2.77;;;2.40;;
9166;SDS011;4618;48.818;9.088;2023-02-28T00:34:55;3.97;;;2.57;;
9166;SDS011;4618;48.818;9.088;2023-02-28T00:37:21;3.83;;;2.43;;
9166;SDS011;4618;48.818;9.088;2023-02-28T00:39:47;3.07;;;2.33;;
9166;SDS011;4618;48.818;9.088;2023-02-28T00:42:12;4.40;;;2.70;;
9166;SDS011;4618;48.818;9.088;2023-02-28T00:44:38;3.80;;;3.20;;
9166;SDS011;4618;48.818;9.088;2023-02-28T00:47:04;2.57;;;2.30;;
9166;SDS011;4618;48.818;9.088;2023-02-28T00:49:29;4.10;;;2.40;;
9166;SDS011;4618;48.818;9.088;2023-02-28T00:51:55;3.13;;;2.80;;
9166;SDS011;4618;48.818;9.088;2023-02-28T00:54:22;4.53;;;3.03;;
9166;SDS011;4618;48.818;9.088;2023-02-28T00:56:48;4.03;;;2.53;;
9166;SDS011;4618;48.818;9.088;2023-02-28T00:59:14;3.63;;;2.70;;
9166;SDS011;4618;48.818;9.088;2023-02-28T01:01:41;2.83;;;2.57;;
9166;SDS011;4618;48.818;9.088;2023-02-28T01:04:07;3.53;;;2.87;;
9166;SDS011;4618;48.818;9.088;2023-02-28T01:06:33;4.33;;;2.67;;
9166;SDS011;4618;48.818;9.088;2023-02-28T01:08:59;6.33;;;3.27;;
9166;SDS011;4618;48.818;9.088;2023-02-28T01:11:25;4.27;;;2.80;;
9166;SDS011;4618;48.818;9.088;2023-02-28T01:13:51;5.57;;;3.30;;
9166;SDS011;4618;48.818;9.088;2023-02-28T01:16:17;4.67;;;3.27;;
9166;SDS011;4618;48.818;9.088;2023-02-28T01:18:43;6.00;;;3.30;;
9166;SDS011;4618;48.818;9.088;2023-02-28T01:21:12;7.57;;;3.30;;
9166;SDS011;4618;48.818;9.088;2023-02-28T01:23:41;4.57;;;3.50;;
9166;SDS011;4618;48.818;9.088;2023-02-28T01:26:11;3.63;;;3.33;;
9166;SDS011;4618;48.818;9.088;2023-02-28T01:28:47;3.97;;;3.03;;
9166;SDS011;4618;48.818;9.088;2023-02-28T01:31:14;4.20;;;3.70;;
9166;SDS011;4618;48.818;9.088;2023-02-28T01:33:40;5.13;;;3.67;;
9166;SDS011;4618;48.818;9.088;2023-02-28T01:36:07;5.20;;;4.23;;
9166;SDS011;4618;48.818;9.088;2023-02-28T01:38:37;4.73;;;3.43;;
9166;SDS011;4618;48.818;9.088;2023-02-28T01:41:03;3.67;;;3.37;;
9166;SDS011;4618;48.818;9.088;2023-02-28T01:43:30;4.27;;;3.70;;
9166;SDS011;4618;48.818;9.088;2023-02-28T01:45:57;4.27;;;3.87;;
9166;SDS011;4618;48.818;9.088;2023-02-28T01:48:25;5.83;;;4.00;;
9166;SDS011;4618;48.818;9.088;2023-02-28T01:50:58;4.57;;;3.57;;
9166;SDS011;4618;48.818;9.088;2023-02-28T01:53:32;4.80;;;4.23;;
9166;SDS011;4618;48.818;9.088;2023-02-28T01:56:01;4.30;;;3.90;;
9166;SDS011;4618;48.818;9.088;2023-02-28T01:58:31;5.00;;;3.93;;
9166;SDS011;4618;48.818;9.088;2023-02-28T02:00:57;5.13;;;4.20;;
9166;SDS011;4618;48.818;9.088;2023-02-28T02:03:22;4.97;;;3.87;;
9166;SDS011;4618;48.818;9.088;2023-02-28T02:05:48;5.13;;;3.83;;
9166;SDS011;4618;48.818;9.088;2023-02-28T02:08:16;4.57;;;3.90;;
9166;SDS011;4618;48.818;9.088;2023-02-28T02:10:54;6.47;;;4.17;;
9166;SDS011;4618;48.818;9.088;2023-02-28T02:13:32;5.00;;;3.93;;
9166;SDS011;4618;48.818;9.088;2023-02-28T02:33:02;4.17;;;3.47;;
9166;SDS011;4618;48.818;9.088;2023-02-28T02:35:43;4.93;;;4.40;;
9166;SDS011;4618;48.818;9.088;2023-02-28T02:38:20;5.07;;;4.47;;
9166;SDS011;4618;48.818;9.088;2023-02-28T02:43:25;4.97;;;4.40;;
9166;SDS011;4618;48.818;9.088;2023-02-28T02:46:06;4.17;;;3.77;;
9166;SDS011;4618;48.818;9.088;2023-02-28T02:48:50;6.17;;;4.03;;
9166;SDS011;4618;48.818;9.088;2023-02-28T02:51:18;4.53;;;3.87;;
9166;SDS011;4618;48.818;9.088;2023-02-28T02:53:48;4.40;;;3.93;;
9166;SDS011;4618;48.818;9.088;2023-02-28T02:56:30;4.87;;;3.90;;
9166;SDS011;4618;48.818;9.088;2023-02-28T02:59:00;4.43;;;3.87;;
9166;SDS011;4618;48.818;9.088;2023-02-28T03:01:32;4.47;;;3.97;;
9166;SDS011;4618;48.818;9.088;2023-02-28T03:04:01;4.67;;;4.07;;
9166;SDS011;4618;48.818;9.088;2023-02-28T03:06:30;6.60;;;4.63;;
9166;SDS011;4618;48.818;9.088;2023-02-28T03:08:56;5.17;;;4.20;;
9166;SDS011;4618;48.818;9.088;2023-02-28T03:11:21;5.60;;;4.17;;
9166;SDS011;4618;48.818;9.088;2023-02-28T03:27:11;4.97;;;4.20;;
9166;SDS011;4618;48.818;9.088;2023-02-28T03:30:06;5.23;;;4.43;;
9166;SDS011;4618;48.818;9.088;2023-02-28T03:32:59;5.50;;;4.43;;
9166;SDS011;4618;48.818;9.088;2023-02-28T03:35:31;5.07;;;4.17;;
9166;SDS011;4618;48.818;9.088;2023-02-28T03:38:04;6.03;;;4.23;;
9166;SDS011;4618;48.818;9.088;2023-02-28T03:40:46;5.47;;;4.37;;
9166;SDS011;4618;48.818;9.088;2023-02-28T03:43:24;5.60;;;4.87;;
9166;SDS011;4618;48.818;9.088;2023-02-28T03:45:53;5.00;;;4.17;;
9166;SDS011;4618;48.818;9.088;2023-02-28T03:48:28;4.97;;;4.40;;
9166;SDS011;4618;48.818;9.088;2023-02-28T03:51:01;4.90;;;4.33;;
9166;SDS011;4618;48.818;9.088;2023-02-28T03:53:32;4.83;;;4.30;;
9166;SDS011;4618;48.818;9.088;2023-02-28T03:56:09;6.00;;;4.70;;
9166;SDS011;4618;48.818;9.088;2023-02-28T03:58:44;5.43;;;4.30;;
9166;SDS011;4618;48.818;9.088;2023-02-28T04:01:47;6.30;;;4.27;;
9166;SDS011;4618;48.818;9.088;2023-02-28T04:04:14;6.77;;;4.50;;
9166;SDS011;4618;48.818;9.088;2023-02-28T04:06:40;5.03;;;4.37;;
9166;SDS011;4618;48.818;9.088;2023-02-28T04:09:07;6.83;;;4.47;;
9166;SDS011;4618;48.818;9.088;2023-02-28T04:11:36;4.70;;;4.30;;
9166;SDS011;4618;48.818;9.088;2023-02-28T04:14:06;4.47;;;3.97;;
9166;SDS011;4618;48.818;9.088;2023-02-28T04:16:34;5.07;;;4.57;;
9166;SDS011;4618;48.818;9.088;2023-02-28T04:19:03;6.50;;;4.60;;
9166;SDS011;4618;48.818;9.088;2023-02-28T04:21:31;6.80;;;4.50;;
9166;SDS011;4618;48.818;9.088;2023-02-28T04:23:58;5.53;;;4.70;;
9166;SDS011;4618;48.818;9.088;2023-02-28T04:26:27;5.63;;;4.60;;
9166;SDS011;4618;48.818;9.088;2023-02-28T04:28:55;5.13;;;4.63;;
9166;SDS011;4618;48.818;9.088;2023-02-28T04:31:21;5.00;;;4.43;;
9166;SDS011;4618;48.818;9.088;2023-02-28T04:33:47;5.40;;;4.60;;
9166;SDS011;4618;48.818;9.088;2023-02-28T04:36:12;5.53;;;4.83;;
9166;SDS011;4618;48.818;9.088;2023-02-28T04:38:39;6.53;;;4.10;;
9166;SDS011;4618;48.818;9.088;2023-02-28T04:41:05;4.87;;;4.37;;
9166;SDS011;4618;48.818;9.088;2023-02-28T04:43:31;5.43;;;4.63;;
9166;SDS011;4618;48.818;9.088;2023-02-28T04:45:57;6.47;;;5.27;;
9166;SDS011;4618;48.818;9.088;2023-02-28T04:48:29;5.43;;;4.47;;
9166;SDS011;4618;48.818;9.088;2023-02-28T04:51:00;6.03;;;4.80;;
9166;SDS011;4618;48.818;9.088;2023-02-28T04:53:27;5.20;;;4.70;;
9166;SDS011;4618;48.818;9.088;2023-02-28T04:55:53;6.87;;;5.00;;
9166;SDS011;4618;48.818;9.088;2023-02-28T04:58:19;5.97;;;4.70;;
9166;SDS011;4618;48.818;9.088;2023-02-28T05:00:48;5.73;;;4.53;;
9166;SDS011;4618;48.818;9.088;2023-02-28T05:03:13;5.13;;;4.63;;
9166;SDS011;4618;48.818;9.088;2023-02-28T05:05:39;6.63;;;5.00;;
9166;SDS011;4618;48.818;9.088;2023-02-28T05:08:04;8.20;;;4.70;;
9166;SDS011;4618;48.818;9.088;2023-02-28T05:10:30;5.53;;;4.93;;
9166;SDS011;4618;48.818;9.088;2023-02-28T05:12:56;5.67;;;4.77;;
9166;SDS011;4618;48.818;9.088;2023-02-28T05:15:22;8.33;;;5.03;;
9166;SDS011;4618;48.818;9.088;2023-02-28T05:17:48;7.27;;;5.10;;
9166;SDS011;4618;48.818;9.088;2023-02-28T05:20:13;5.97;;;4.97;;
9166;SDS011;4618;48.818;9.088;2023-02-28T05:22:39;5.83;;;5.07;;
9166;SDS011;4618;48.818;9.088;2023-02-28T05:25:06;7.57;;;5.03;;
9166;SDS011;4618;48.818;9.088;2023-02-28T05:27:33;6.97;;;5.00;;
9166;SDS011;4618;48.818;9.088;2023-02-28T05:29:59;9.27;;;4.70;;
9166;SDS011;4618;48.818;9.088;2023-02-28T05:32:27;7.60;;;5.67;;
9166;SDS011;4618;48.818;9.088;2023-02-28T05:34:53;6.63;;;5.20;;
9166;SDS011;4618;48.818;9.088;2023-02-28T05:37:18;6.00;;;5.00;;
9166;SDS011;4618;48.818;9.088;2023-02-28T05:39:44;8.53;;;5.60;;
9166;SDS011;4618;48.818;9.088;2023-02-28T05:42:10;7.13;;;5.27;;
9166;SDS011;4618;48.818;9.088;2023-02-28T05:44:35;8.60;;;5.33;;
9166;SDS011;4618;48.818;9.088;2023-02-28T05:47:01;6.43;;;5.50;;
9166;SDS011;4618;48.818;9.088;2023-02-28T05:49:27;7.40;;;5.43;;
9166;SDS011;4618;48.818;9.088;2023-02-28T05:51:53;8.83;;;5.60;;
9166;SDS011;4618;48.818;9.088;2023-02-28T05:54:18;7.07;;;5.43;;
9166;SDS011;4618;48.818;9.088;2023-02-28T05:56:44;8.60;;;5.80;;
9166;SDS011;4618;48.818;9.088;2023-02-28T05:59:11;6.80;;;5.70;;
9166;SDS011;4618;48.818;9.088;2023-02-28T06:01:38;6.97;;;5.80;;
9166;SDS011;4618;48.818;9.088;2023-02-28T06:04:07;6.80;;;5.43;;
9166;SDS011;4618;48.818;9.088;2023-02-28T06:06:34;9.03;;;5.57;;
9166;SDS011;4618;48.818;9.088;2023-02-28T06:09:01;6.67;;;5.87;;
9166;SDS011;4618;48.818;9.088;2023-02-28T06:11:28;6.27;;;5.37;;
9166;SDS011;4618;48.818;9.088;2023-02-28T06:13:55;6.70;;;6.00;;
9166;SDS011;4618;48.818;9.088;2023-02-28T06:16:22;8.93;;;6.27;;
9166;SDS011;4618;48.818;9.088;2023-02-28T06:18:48;7.47;;;5.83;;
9166;SDS011;4618;48.818;9.088;2023-02-28T06:21:14;7.50;;;5.53;;
9166;SDS011;4618;48.818;9.088;2023-02-28T06:23:39;6.40;;;5.40;;
9166;SDS011;4618;48.818;9.088;2023-02-28T06:26:05;7.20;;;5.70;;
9166;SDS011;4618;48.818;9.088;2023-02-28T06:28:31;7.43;;;5.80;;
9166;SDS011;4618;48.818;9.088;2023-02-28T06:30:56;9.67;;;6.00;;
9166;SDS011;4618;48.818;9.088;2023-02-28T06:33:22;6.77;;;5.60;;
9166;SDS011;4618;48.818;9.088;2023-02-28T06:35:51;6.63;;;5.90;;
9166;SDS011;4618;48.818;9.088;2023-02-28T06:38:17;6.43;;;5.60;;
9166;SDS011;4618;48.818;9.088;2023-02-28T06:40:43;13.27;;;6.60;;
9166;SDS011;4618;48.818;9.088;2023-02-28T06:43:09;9.80;;;6.37;;
9166;SDS011;4618;48.818;9.088;2023-02-28T06:45:41;7.63;;;5.97;;
9166;SDS011;4618;48.818;9.088;2023-02-28T06:48:08;9.57;;;6.20;;
9166;SDS011;4618;48.818;9.088;2023-02-28T06:50:34;8.47;;;6.53;;
9166;SDS011;4618;48.818;9.088;2023-02-28T06:52:59;9.40;;;6.33;;
9166;SDS011;4618;48.818;9.088;2023-02-28T06:55:25;9.00;;;6.30;;
9166;SDS011;4618;48.818;9.088;2023-02-28T06:57:50;9.23;;;6.20;;
9166;SDS011;4618;48.818;9.088;2023-02-28T07:00:16;6.83;;;5.87;;
9166;SDS011;4618;48.818;9.088;2023-02-28T07:02:42;6.47;;;5.83;;
9166;SDS011;4618;48.818;9.088;2023-02-28T07:05:07;6.47;;;5.73;;
9166;SDS011;4618;48.818;9.088;2023-02-28T07:07:33;7.03;;;5.77;;
9166;SDS011;4618;48.818;9.088;2023-02-28T07:10:01;9.37;;;6.00;;
9166;SDS011;4618;48.818;9.088;2023-02-28T07:12:27;7.83;;;6.67;;
9166;SDS011;4618;48.818;9.088;2023-02-28T07:14:53;8.07;;;6.20;;
9166;SDS011;4618;48.818;9.088;2023-02-28T07:17:20;10.07;;;6.77;;
9166;SDS011;4618;48.818;9.088;2023-02-28T07:19:46;8.63;;;6.90;;
9166;SDS011;4618;48.818;9.088;2023-02-28T07:22:11;7.43;;;6.33;;
9166;SDS011;4618;48.818;9.088;2023-02-28T07:24:37;8.53;;;6.40;;
9166;SDS011;4618;48.818;9.088;2023-02-28T07:27:03;8.30;;;6.10;;
9166;SDS011;4618;48.818;9.088;2023-02-28T07:29:28;8.30;;;6.50;;
9166;SDS011;4618;48.818;9.088;2023-02-28T07:31:54;7.67;;;6.60;;
9166;SDS011;4618;48.818;9.088;2023-02-28T07:34:21;7.50;;;6.03;;
9166;SDS011;4618;48.818;9.088;2023-02-28T07:36:47;6.77;;;6.07;;
9166;SDS011;4618;48.818;9.088;2023-02-28T07:39:12;9.17;;;6.60;;
9166;SDS011;4618;48.818;9.088;2023-02-28T07:41:38;10.07;;;6.90;;
9166;SDS011;4618;48.818;9.088;2023-02-28T07:44:09;9.80;;;6.77;;
9166;SDS011;4618;48.818;9.088;2023-02-28T07:46:35;9.00;;;6.70;;
9166;SDS011;4618;48.818;9.088;2023-02-28T07:49:01;8.60;;;6.00;;
9166;SDS011;4618;48.818;9.088;2023-02-28T07:51:28;9.83;;;7.17;;
9166;SDS011;4618;48.818;9.088;2023-02-28T07:53:54;7.43;;;6.63;;
9166;SDS011;4618;48.818;9.088;2023-02-28T07:56:19;10.60;;;6.87;;
9166;SDS011;4618;48.818;9.088;2023-02-28T07:58:45;7.90;;;6.60;;
9166;SDS011;4618;48.818;9.088;2023-02-28T08:01:10;9.13;;;6.50;;
9166;SDS011;4618;48.818;9.088;2023-02-28T08:03:37;7.83;;;6.70;;
9166;SDS011;4618;48.818;9.088;2023-02-28T08:06:04;10.03;;;6.40;;
9166;SDS011;4618;48.818;9.088;2023-02-28T08:08:31;7.10;;;6.40;;
9166;SDS011;4618;48.818;9.088;2023-02-28T08:11:00;8.23;;;6.87;;
9166;SDS011;4618;48.818;9.088;2023-02-28T08:13:28;9.47;;;6.77;;
9166;SDS011;4618;48.818;9.088;2023-02-28T08:15:55;7.80;;;6.40;;
9166;SDS011;4618;48.818;9.088;2023-02-28T08:18:21;10.80;;;7.70;;
9166;SDS011;4618;48.818;9.088;2023-02-28T08:20:47;10.67;;;7.33;;
9166;SDS011;4618;48.818;9.088;2023-02-28T08:23:13;8.47;;;7.50;;
9166;SDS011;4618;48.818;9.088;2023-02-28T08:25:38;8.03;;;6.80;;
9166;SDS011;4618;48.818;9.088;2023-02-28T08:28:04;8.27;;;6.70;;
9166;SDS011;4618;48.818;9.088;2023-02-28T08:30:30;12.20;;;7.20;;
9166;SDS011;4618;48.818;9.088;2023-02-28T08:32:55;8.73;;;7.20;;
9166;SDS011;4618;48.818;9.088;2023-02-28T08:35:21;10.33;;;7.47;;
9166;SDS011;4618;48.818;9.088;2023-02-28T08:37:47;10.77;;;7.33;;
9166;SDS011;4618;48.818;9.088;2023-02-28T08:40:14;9.37;;;7.30;;
9166;SDS011;4618;48.818;9.088;2023-02-28T08:42:43;9.57;;;7.20;;
9166;SDS011;4618;48.818;9.088;2023-02-28T08:45:13;9.53;;;7.37;;
9166;SDS011;4618;48.818;9.088;2023-02-28T08:47:39;9.03;;;6.50;;
9166;SDS011;4618;48.818;9.088;2023-02-28T08:50:05;11.23;;;6.90;;
9166;SDS011;4618;48.818;9.088;2023-02-28T08:52:32;7.50;;;6.57;;
9166;SDS011;4618;48.818;9.088;2023-02-28T08:54:58;8.13;;;6.80;;
9166;SDS011;4618;48.818;9.088;2023-02-28T08:57:23;9.83;;;7.33;;
9166;SDS011;4618;48.818;9.088;2023-02-28T08:59:51;9.63;;;7.33;;
9166;SDS011;4618;48.818;9.088;2023-02-28T09:02:17;12.60;;;7.27;;
9166;SDS011;4618;48.818;9.088;2023-02-28T09:04:43;11.13;;;7.53;;
9166;SDS011;4618;48.818;9.088;2023-02-28T09:07:10;14.67;;;9.10;;
9166;SDS011;4618;48.818;9.088;2023-02-28T09:09:36;8.93;;;8.00;;
9166;SDS011;4618;48.818;9.088;2023-02-28T09:12:02;9.80;;;7.50;;
9166;SDS011;4618;48.818;9.088;2023-02-28T09:14:27;9.23;;;7.57;;
9166;SDS011;4618;48.818;9.088;2023-02-28T09:16:53;9.47;;;7.40;;
9166;SDS011;4618;48.818;9.088;2023-02-28T09:19:19;8.60;;;7.17;;
9166;SDS011;4618;48.818;9.088;2023-02-28T09:21:45;13.00;;;8.00;;
9166;SDS011;4618;48.818;9.088;2023-02-28T09:24:11;9.97;;;7.93;;
9166;SDS011;4618;48.818;9.088;2023-02-28T09:26:39;9.10;;;7.20;;
9166;SDS011;4618;48.818;9.088;2023-02-28T09:29:05;8.30;;;7.37;;
9166;SDS011;4618;48.818;9.088;2023-02-28T09:31:31;8.70;;;7.37;;
9166;SDS011;4618;48.818;9.088;2023-02-28T09:33:58;9.53;;;7.07;;
9166;SDS011;4618;48.818;9.088;2023-02-28T09:36:24;9.23;;;7.10;;
9166;SDS011;4618;48.818;9.088;2023-02-28T09:38:51;8.60;;;7.23;;
9166;SDS011;4618;48.818;9.088;2023-02-28T09:41:19;9.83;;;7.20;;
9166;SDS011;4618;48.818;9.088;2023-02-28T09:43:47;8.03;;;7.03;;
9166;SDS011;4618;48.818;9.088;2023-02-28T09:48:51;8.60;;;7.47;;
9166;SDS011;4618;48.818;9.088;2023-02-28T09:53:55;8.70;;;7.47;;
9166;SDS011;4618;48.818;9.088;2023-02-28T09:56:21;8.20;;;7.13;;
9166;SDS011;4618;48.818;9.088;2023-02-28T10:04:23;10.97;;;9.17;;
9166;SDS011;4618;48.818;9.088;2023-02-28T10:07:34;9.37;;;8.00;;
9166;SDS011;4618;48.818;9.088;2023-02-28T10:10:24;9.53;;;8.33;;
9166;SDS011;4618;48.818;9.088;2023-02-28T10:13:01;9.33;;;7.90;;
9166;SDS011;4618;48.818;9.088;2023-02-28T10:15:30;9.17;;;7.63;;
9166;SDS011;4618;48.818;9.088;2023-02-28T10:17:58;8.27;;;7.37;;
9166;SDS011;4618;48.818;9.088;2023-02-28T10:20:29;10.00;;;8.17;;
9166;SDS011;4618;48.818;9.088;2023-02-28T10:25:49;9.20;;;7.57;;
9166;SDS011;4618;48.818;9.088;2023-02-28T10:28:21;11.83;;;8.30;;
9166;SDS011;4618;48.818;9.088;2023-02-28T10:30:50;9.43;;;8.20;;
9166;SDS011;4618;48.818;9.088;2023-02-28T10:33:31;8.87;;;7.97;;
9166;SDS011;4618;48.818;9.088;2023-02-28T10:36:02;12.00;;;8.50;;
9166;SDS011;4618;48.818;9.088;2023-02-28T10:38:35;10.67;;;8.07;;
9166;SDS011;4618;48.818;9.088;2023-02-28T10:41:13;8.80;;;8.00;;
9166;SDS011;4618;48.818;9.088;2023-02-28T10:43:41;8.37;;;7.60;;
9166;SDS011;4618;48.818;9.088;2023-02-28T10:48:34;9.87;;;8.63;;
9166;SDS011;4618;48.818;9.088;2023-02-28T10:51:10;10.57;;;8.23;;
9166;SDS011;4618;48.818;9.088;2023-02-28T10:53:39;8.63;;;7.83;;
9166;SDS011;4618;48.818;9.088;2023-02-28T10:56:16;9.80;;;8.10;;
9166;SDS011;4618;48.818;9.088;2023-02-28T11:03:55;8.00;;;7.10;;
9166;SDS011;4618;48.818;9.088;2023-02-28T11:06:23;8.80;;;7.70;;
9166;SDS011;4618;48.818;9.088;2023-02-28T11:08:58;9.03;;;7.90;;
9166;SDS011;4618;48.818;9.088;2023-02-28T11:11:44;8.53;;;7.63;;
9166;SDS011;4618;48.818;9.088;2023-02-28T11:14:31;8.87;;;7.73;;
9166;SDS011;4618;48.818;9.088;2023-02-28T11:17:21;8.57;;;7.73;;
9166;SDS011;4618;48.818;9.088;2023-02-28T11:19:53;8.80;;;7.90;;
9166;SDS011;4618;48.818;9.088;2023-02-28T11:22:24;8.83;;;8.03;;
9166;SDS011;4618;48.818;9.088;2023-02-28T11:24:53;8.70;;;7.80;;
9166;SDS011;4618;48.818;9.088;2023-02-28T11:30:17;8.97;;;7.90;;
9166;SDS011;4618;48.818;9.088;2023-02-28T11:32:52;8.90;;;8.03;;
9166;SDS011;4618;48.818;9.088;2023-02-28T11:35:21;8.03;;;7.20;;
9166;SDS011;4618;48.818;9.088;2023-02-28T11:38:09;9.03;;;7.97;;
9166;SDS011;4618;48.818;9.088;2023-02-28T11:40:46;8.80;;;8.00;;
9166;SDS011;4618;48.818;9.088;2023-02-28T11:49:16;9.60;;;7.37;;
9166;SDS011;4618;48.818;9.088;2023-02-28T11:54:47;8.77;;;7.50;;
9166;SDS011;4618;48.818;9.088;2023-02-28T11:57:20;7.90;;;7.17;;
9166;SDS011;4618;48.818;9.088;2023-02-28T12:00:45;7.73;;;6.87;;
9166;SDS011;4618;48.818;9.088;2023-02-28T12:05:31;7.80;;;7.10;;
9166;SDS011;4618;48.818;9.088;2023-02-28T12:08:22;7.93;;;7.13;;
9166;SDS011;4618;48.818;9.088;2023-02-28T12:19:40;8.47;;;7.00;;
9166;SDS011;4618;48.818;9.088;2023-02-28T12:22:32;8.30;;;7.47;;
9166;SDS011;4618;48.818;9.088;2023-02-28T12:28:24;7.70;;;7.00;;
9166;SDS011;4618;48.818;9.088;2023-02-28T12:31:04;7.37;;;6.67;;
9166;SDS011;4618;48.818;9.088;2023-02-28T12:33:57;8.37;;;7.67;;
9166;SDS011;4618;48.818;9.088;2023-02-28T12:36:27;8.40;;;7.60;;
9166;SDS011;4618;48.818;9.088;2023-02-28T12:38:55;7.23;;;6.63;;
9166;SDS011;4618;48.818;9.088;2023-02-28T12:41:27;8.43;;;6.80;;
9166;SDS011;4618;48.818;9.088;2023-02-28T12:44:02;7.67;;;6.87;;
9166;SDS011;4618;48.818;9.088;2023-02-28T12:46:33;7.50;;;6.80;;
9166;SDS011;4618;48.818;9.088;2023-02-28T12:49:05;9.97;;;7.00;;
9166;SDS011;4618;48.818;9.088;2023-02-28T12:51:35;7.60;;;6.80;;
9166;SDS011;4618;48.818;9.088;2023-02-28T12:57:00;7.13;;;6.53;;
9166;SDS011;4618;48.818;9.088;2023-02-28T12:59:44;8.23;;;6.60;;
9166;SDS011;4618;48.818;9.088;2023-02-28T13:11:01;7.73;;;6.97;;
9166;SDS011;4618;48.818;9.088;2023-02-28T13:13:27;7.50;;;6.80;;
9166;SDS011;4618;48.818;9.088;2023-02-28T13:16:04;7.60;;;6.77;;
9166;SDS011;4618;48.818;9.088;2023-02-28T13:18:38;7.37;;;6.73;;
9166;SDS011;4618;48.818;9.088;2023-02-28T13:21:09;7.37;;;6.67;;
9166;SDS011;4618;48.818;9.088;2023-02-28T13:26:21;7.43;;;6.73;;
9166;SDS011;4618;48.818;9.088;2023-02-28T13:31:15;8.17;;;7.37;;
9166;SDS011;4618;48.818;9.088;2023-02-28T13:38:40;7.27;;;6.60;;
9166;SDS011;4618;48.818;9.088;2023-02-28T13:49:20;7.50;;;6.80;;
9166;SDS011;4618;48.818;9.088;2023-02-28T13:52:02;7.60;;;6.90;;
9166;SDS011;4618;48.818;9.088;2023-02-28T13:57:49;7.37;;;6.67;;
9166;SDS011;4618;48.818;9.088;2023-02-28T14:09:02;7.70;;;6.83;;
9166;SDS011;4618;48.818;9.088;2023-02-28T14:11:40;11.50;;;10.30;;
9166;SDS011;4618;48.818;9.088;2023-02-28T14:14:08;7.80;;;7.10;;
9166;SDS011;4618;48.818;9.088;2023-02-28T14:16:54;7.77;;;7.00;;
9166;SDS011;4618;48.818;9.088;2023-02-28T14:19:25;7.33;;;6.63;;
9166;SDS011;4618;48.818;9.088;2023-02-28T14:25:04;9.83;;;6.93;;
9166;SDS011;4618;48.818;9.088;2023-02-28T14:31:06;7.57;;;6.77;;
9166;SDS011;4618;48.818;9.088;2023-02-28T14:36:27;8.10;;;6.70;;
9166;SDS011;4618;48.818;9.088;2023-02-28T14:38:59;7.00;;;6.33;;
9166;SDS011;4618;48.818;9.088;2023-02-28T14:41:34;6.83;;;6.23;;
9166;SDS011;4618;48.818;9.088;2023-02-28T14:44:03;7.53;;;6.77;;
9166;SDS011;4618;48.818;9.088;2023-02-28T14:46:45;9.63;;;6.90;;
9166;SDS011;4618;48.818;9.088;2023-02-28T14:49:25;7.77;;;6.87;;
9166;SDS011;4618;48.818;9.088;2023-02-28T14:54:34;8.13;;;7.20;;
9166;SDS011;4618;48.818;9.088;2023-02-28T14:57:01;9.07;;;7.20;;
9166;SDS011;4618;48.818;9.088;2023-02-28T14:59:31;7.40;;;6.80;;
9166;SDS011;4618;48.818;9.088;2023-02-28T15:04:42;7.80;;;7.03;;
9166;SDS011;4618;48.818;9.088;2023-02-28T15:07:08;7.33;;;6.63;;
9166;SDS011;4618;48.818;9.088;2023-02-28T15:09:35;7.97;;;6.77;;
9166;SDS011;4618;48.818;9.088;2023-02-28T15:12:01;7.47;;;6.87;;
9166;SDS011;4618;48.818;9.088;2023-02-28T15:14:27;7.50;;;6.80;;
9166;SDS011;4618;48.818;9.088;2023-02-28T15:16:57;8.90;;;7.47;;
9166;SDS011;4618;48.818;9.088;2023-02-28T15:19:34;7.87;;;6.87;;
9166;SDS011;4618;48.818;9.088;2023-02-28T15:22:05;8.03;;;6.70;;
9166;SDS011;4618;48.818;9.088;2023-02-28T15:27:20;7.70;;;6.97;;
9166;SDS011;4618;48.818;9.088;2023-02-28T15:29:50;7.93;;;7.10;;
9166;SDS011;4618;48.818;9.088;2023-02-28T15:32:23;8.70;;;7.90;;
9166;SDS011;4618;48.818;9.088;2023-02-28T15:34:57;8.43;;;7.63;;
9166;SDS011;4618;48.818;9.088;2023-02-28T15:40:04;10.13;;;7.60;;
9166;SDS011;4618;48.818;9.088;2023-02-28T15:42:38;7.63;;;6.93;;
9166;SDS011;4618;48.818;9.088;2023-02-28T15:45:04;8.03;;;7.23;;
9166;SDS011;4618;48.818;9.088;2023-02-28T15:47:30;9.13;;;7.27;;
9166;SDS011;4618;48.818;9.088;2023-02-28T15:50:00;8.97;;;7.33;;
9166;SDS011;4618;48.818;9.088;2023-02-28T15:52:29;8.63;;;7.73;;
9166;SDS011;4618;48.818;9.088;2023-02-28T15:55:10;9.83;;;7.23;;
9166;SDS011;4618;48.818;9.088;2023-02-28T15:57:52;9.13;;;7.90;;
9166;SDS011;4618;48.818;9.088;2023-02-28T16:00:21;7.97;;;7.17;;
9166;SDS011;4618;48.818;9.088;2023-02-28T16:02:48;8.07;;;7.00;;
9166;SDS011;4618;48.818;9.088;2023-02-28T16:07:55;8.53;;;7.27;;
9166;SDS011;4618;48.818;9.088;2023-02-28T16:10:23;11.03;;;7.40;;
9166;SDS011;4618;48.818;9.088;2023-02-28T16:12:52;8.73;;;7.63;;
9166;SDS011;4618;48.818;9.088;2023-02-28T16:15:27;8.80;;;7.57;;
9166;SDS011;4618;48.818;9.088;2023-02-28T16:17:54;9.33;;;8.03;;
9166;SDS011;4618;48.818;9.088;2023-02-28T16:20:21;8.73;;;7.83;;
9166;SDS011;4618;48.818;9.088;2023-02-28T16:22:48;9.17;;;7.73;;
9166;SDS011;4618;48.818;9.088;2023-02-28T16:25:15;9.43;;;7.90;;
9166;SDS011;4618;48.818;9.088;2023-02-28T16:27:42;8.43;;;7.63;;
9166;SDS011;4618;48.818;9.088;2023-02-28T16:30:16;11.37;;;8.30;;
9166;SDS011;4618;48.818;9.088;2023-02-28T16:32:47;9.97;;;7.50;;
9166;SDS011;4618;48.818;9.088;2023-02-28T16:35:14;9.30;;;8.17;;
9166;SDS011;4618;48.818;9.088;2023-02-28T16:37:40;9.97;;;7.60;;
9166;SDS011;4618;48.818;9.088;2023-02-28T16:40:06;9.17;;;8.27;;
9166;SDS011;4618;48.818;9.088;2023-02-28T16:42:41;10.23;;;8.10;;
9166;SDS011;4618;48.818;9.088;2023-02-28T16:45:14;8.57;;;7.70;;
9166;SDS011;4618;48.818;9.088;2023-02-28T16:47:42;11.17;;;8.50;;
9166;SDS011;4618;48.818;9.088;2023-02-28T16:50:12;9.70;;;8.03;;
9166;SDS011;4618;48.818;9.088;2023-02-28T16:52:43;9.90;;;8.27;;
9166;SDS011;4618;48.818;9.088;2023-02-28T16:55:08;9.57;;;8.27;;
9166;SDS011;4618;48.818;9.088;2023-02-28T16:57:34;9.33;;;8.40;;
9166;SDS011;4618;48.818;9.088;2023-02-28T17:00:00;9.87;;;8.90;;
9166;SDS011;4618;48.818;9.088;2023-02-28T17:02:25;10.00;;;8.80;;
9166;SDS011;4618;48.818;9.088;2023-02-28T17:04:51;10.00;;;9.00;;
9166;SDS011;4618;48.818;9.088;2023-02-28T17:07:16;11.20;;;8.50;;
9166;SDS011;4618;48.818;9.088;2023-02-28T17:09:42;10.87;;;9.17;;
9166;SDS011;4618;48.818;9.088;2023-02-28T17:12:08;10.70;;;9.53;;
9166;SDS011;4618;48.818;9.088;2023-02-28T17:14:35;12.80;;;9.67;;
9166;SDS011;4618;48.818;9.088;2023-02-28T17:17:01;12.17;;;10.07;;
9166;SDS011;4618;48.818;9.088;2023-02-28T17:19:27;11.83;;;9.67;;
9166;SDS011;4618;48.818;9.088;2023-02-28T17:21:53;11.80;;;10.07;;
9166;SDS011;4618;48.818;9.088;2023-02-28T17:24:19;11.37;;;10.17;;
9166;SDS011;4618;48.818;9.088;2023-02-28T17:26:44;10.93;;;9.30;;
9166;SDS011;4618;48.818;9.088;2023-02-28T17:29:13;12.60;;;9.53;;
9166;SDS011;4618;48.818;9.088;2023-02-28T17:31:43;12.93;;;10.07;;
9166;SDS011;4618;48.818;9.088;2023-02-28T17:34:08;10.67;;;9.57;;
9166;SDS011;4618;48.818;9.088;2023-02-28T17:36:34;14.63;;;10.03;;
9166;SDS011;4618;48.818;9.088;2023-02-28T17:39:02;12.47;;;10.63;;
9166;SDS011;4618;48.818;9.088;2023-02-28T17:41:28;13.03;;;10.33;;
9166;SDS011;4618;48.818;9.088;2023-02-28T17:43:55;12.40;;;10.63;;
9166;SDS011;4618;48.818;9.088;2023-02-28T17:46:22;14.30;;;10.67;;
9166;SDS011;4618;48.818;9.088;2023-02-28T17:48:49;13.17;;;10.47;;
9166;SDS011;4618;48.818;9.088;2023-02-28T17:51:16;14.67;;;10.77;;